Time;durP1;ratioP1;P1;durP2;ratioP2;P2;SDS_P1;SDS_P2;PMS_P1;PMS_P2;Temp;Humidity;BMP_temperature;BMP_pressure;BME280_temperature;BME280_humidity;BME280_pressure;Samples;Min_cycle;Max_cycle;Signal;HPM_P1;HPM_P2
2022/12/10 00:01:10;;;;;;;55.38;37.58;;;-1.20;99.90;;;;;;5047041;28;20425;-70
2022/12/10 00:03:35;;;;;;;63.60;40.67;;;-1.20;99.90;;;;;;5046262;28;20473;-69
2022/12/10 00:06:03;;;;;;;58.90;37.87;;;-1.30;99.90;;;;;;5046487;28;20409;-69
2022/12/10 00:08:29;;;;;;;54.57;36.47;;;-1.00;99.90;;;;;;5047100;28;20446;-70
2022/12/10 00:10:55;;;;;;;58.95;40.80;;;-1.10;99.90;;;;;;5043985;28;20425;-71
2022/12/10 00:13:21;;;;;;;59.80;39.00;;;-1.20;99.90;;;;;;5045955;28;21122;-71
2022/12/10 00:15:47;;;;;;;62.00;39.70;;;-1.20;99.90;;;;;;5028530;28;20433;-69
2022/12/10 00:18:12;;;;;;;59.97;39.30;;;-1.00;99.90;;;;;;5047374;28;20404;-72
2022/12/10 00:20:38;;;;;;;65.63;40.85;;;-1.20;99.90;;;;;;5043689;28;20512;-69
2022/12/10 00:23:04;;;;;;;59.03;37.90;;;-1.20;99.90;;;;;;5044193;28;20429;-71
2022/12/10 00:25:31;;;;;;;58.17;38.70;;;-1.10;99.90;;;;;;5043673;28;20499;-70
2022/12/10 00:27:57;;;;;;;59.13;39.13;;;-1.00;99.90;;;;;;5045961;28;20518;-71
2022/12/10 00:30:23;;;;;;;58.92;38.85;;;-1.10;99.90;;;;;;5044126;28;20426;-70
2022/12/10 00:32:49;;;;;;;63.78;40.25;;;-1.30;99.90;;;;;;5047162;28;20405;-71
2022/12/10 00:35:15;;;;;;;61.70;40.80;;;-1.20;99.90;;;;;;5045677;28;20453;-72
2022/12/10 00:37:40;;;;;;;60.80;38.30;;;-1.30;99.90;;;;;;5046166;28;20397;-70
2022/12/10 00:40:07;;;;;;;57.60;41.00;;;-1.20;99.90;;;;;;5047224;28;20425;-71
2022/12/10 00:42:33;;;;;;;63.17;40.63;;;-0.90;99.90;;;;;;5028825;28;20446;-69
2022/12/10 00:44:58;;;;;;;61.70;40.95;;;-1.00;99.90;;;;;;5045696;28;20460;-70
2022/12/10 00:47:24;;;;;;;61.90;40.15;;;-1.10;99.90;;;;;;5045308;28;20410;-70
2022/12/10 00:49:50;;;;;;;67.78;42.97;;;-1.20;99.90;;;;;;5046892;28;20412;-71
2022/12/10 00:52:15;;;;;;;65.77;42.00;;;-1.00;99.90;;;;;;5041406;28;20521;-71
2022/12/10 00:54:43;;;;;;;64.93;41.70;;;-1.10;99.90;;;;;;5042061;28;20468;-71
2022/12/10 00:57:09;;;;;;;62.22;40.20;;;-1.10;99.90;;;;;;5046904;28;20532;-70
2022/12/10 00:59:35;;;;;;;59.15;39.03;;;-1.00;99.90;;;;;;5045345;28;20938;-71
2022/12/10 01:02:01;;;;;;;61.55;41.25;;;-1.00;99.90;;;;;;5046073;28;20444;-70
2022/12/10 01:04:26;;;;;;;61.20;42.27;;;-0.80;99.90;;;;;;5046016;28;20413;-70
2022/12/10 01:06:53;;;;;;;58.47;39.77;;;-1.10;99.90;;;;;;5045899;28;20436;-71
2022/12/10 01:09:22;;;;;;;61.05;39.72;;;-0.90;99.90;;;;;;5045639;28;20442;-71
2022/12/10 01:11:50;;;;;;;62.35;41.05;;;-1.00;99.90;;;;;;5045775;28;20414;-71
2022/12/10 01:14:22;;;;;;;64.07;40.50;;;-0.90;99.90;;;;;;5046154;28;20417;-71
2022/12/10 01:16:52;;;;;;;65.83;42.10;;;-0.80;99.90;;;;;;5045531;28;20563;-71
2022/12/10 01:19:18;;;;;;;62.78;41.80;;;-0.90;99.90;;;;;;5045341;28;20760;-72
2022/12/10 01:21:44;;;;;;;65.40;42.13;;;-1.00;99.90;;;;;;5044954;28;20423;-69
2022/12/10 01:24:10;;;;;;;62.53;41.17;;;-0.90;99.90;;;;;;5045227;28;20775;-70
2022/12/10 01:26:36;;;;;;;63.92;42.15;;;-0.90;99.90;;;;;;5045065;28;20431;-71
2022/12/10 01:29:03;;;;;;;64.43;40.08;;;-0.90;99.90;;;;;;5046537;28;20470;-70
2022/12/10 01:31:32;;;;;;;62.90;43.10;;;-0.80;99.90;;;;;;5045978;28;20421;-70
2022/12/10 01:33:59;;;;;;;62.92;40.88;;;-0.70;99.90;;;;;;5026809;28;20805;-72
2022/12/10 01:36:31;;;;;;;59.95;38.33;;;-0.70;99.90;;;;;;5046266;28;20425;-70
2022/12/10 01:38:58;;;;;;;65.07;40.95;;;-1.00;99.90;;;;;;5049214;28;20769;-69
2022/12/10 01:41:26;;;;;;;59.25;38.88;;;-1.00;99.90;;;;;;5048288;28;20422;-69
2022/12/10 01:43:57;;;;;;;61.08;40.75;;;-0.90;99.90;;;;;;5048848;28;20430;-70
2022/12/10 01:46:28;;;;;;;63.63;40.80;;;-0.80;99.90;;;;;;5050133;28;20414;-69
2022/12/10 01:48:54;;;;;;;63.07;40.23;;;-0.70;99.90;;;;;;5049471;28;20493;-69
2022/12/10 01:51:20;;;;;;;58.83;39.47;;;-0.80;99.90;;;;;;5046130;28;20854;-70
2022/12/10 01:53:46;;;;;;;61.10;40.60;;;-0.70;99.90;;;;;;5049823;28;20475;-70
2022/12/10 01:56:15;;;;;;;64.18;40.60;;;-0.80;99.90;;;;;;5049536;28;20433;-69
2022/12/10 01:58:41;;;;;;;59.88;39.67;;;-0.80;99.90;;;;;;5050137;28;20795;-70
2022/12/10 02:01:13;;;;;;;59.08;40.08;;;-0.90;99.90;;;;;;5047278;28;20444;-70
2022/12/10 02:03:52;;;;;;;59.38;40.83;;;-0.90;99.90;;;;;;5048632;28;20431;-71
2022/12/10 02:06:35;;;;;;;58.83;39.20;;;-0.90;99.90;;;;;;5048017;28;20486;-71
2022/12/10 02:09:23;;;;;;;65.50;43.00;;;-1.00;99.90;;;;;;5048515;28;20427;-70
2022/12/10 02:12:16;;;;;;;62.92;40.20;;;-1.20;99.90;;;;;;5050304;28;20456;-70
2022/12/10 02:14:56;;;;;;;68.25;42.10;;;-1.20;99.90;;;;;;5044861;28;20441;-70
2022/12/10 02:17:38;;;;;;;61.67;39.65;;;-1.40;99.90;;;;;;5045842;28;20436;-71
2022/12/10 02:20:13;;;;;;;65.22;41.60;;;-1.30;99.90;;;;;;5045463;28;25106;-69
2022/12/10 02:23:00;;;;;;;64.57;41.35;;;-1.10;99.90;;;;;;5037173;28;25143;-70
2022/12/10 02:25:41;;;;;;;62.97;42.03;;;-1.20;99.90;;;;;;5031291;28;20421;-70
2022/12/10 02:28:33;;;;;;;67.65;41.45;;;-1.20;99.90;;;;;;5047420;28;25092;-70
2022/12/10 02:31:01;;;;;;;65.25;41.83;;;-1.40;99.90;;;;;;5040640;28;25105;-70
2022/12/10 02:33:29;;;;;;;65.77;40.13;;;-1.50;99.90;;;;;;5047795;28;20411;-70
2022/12/10 02:35:59;;;;;;;66.20;42.15;;;-1.20;99.90;;;;;;5048344;28;20843;-70
2022/12/10 02:38:31;;;;;;;61.65;40.55;;;-1.20;99.90;;;;;;5047911;28;20469;-69
2022/12/10 02:41:05;;;;;;;66.95;43.22;;;-1.10;99.90;;;;;;5047916;28;20434;-69
2022/12/10 02:43:33;;;;;;;63.75;41.05;;;-1.40;99.90;;;;;;5048237;28;25162;-70
2022/12/10 02:46:01;;;;;;;65.95;41.67;;;-1.50;99.90;;;;;;5049284;28;20739;-69
2022/12/10 02:48:28;;;;;;;63.90;42.28;;;-1.30;99.90;;;;;;5046686;28;20421;-69
2022/12/10 02:50:53;;;;;;;64.40;41.42;;;-1.40;99.90;;;;;;5047811;28;20500;-70
2022/12/10 02:53:19;;;;;;;64.63;40.78;;;-1.60;99.90;;;;;;5043314;28;20497;-70
2022/12/10 02:56:05;;;;;;;64.73;41.47;;;-1.30;99.90;;;;;;5047635;28;20417;-70
2022/12/10 02:58:47;;;;;;;64.00;42.25;;;-1.50;99.90;;;;;;5029956;28;20847;-70
2022/12/10 03:01:41;;;;;;;67.88;42.30;;;-1.60;99.90;;;;;;5047698;28;25141;-69
2022/12/10 03:04:17;;;;;;;69.57;43.60;;;-1.60;99.90;;;;;;5018944;28;25117;-71
2022/12/10 03:06:58;;;;;;;67.25;43.45;;;-1.30;99.90;;;;;;5048233;28;20394;-70
2022/12/10 03:09:30;;;;;;;68.50;43.88;;;-1.50;99.90;;;;;;5045329;28;20471;-70
2022/12/10 03:12:02;;;;;;;68.10;41.92;;;-1.30;99.90;;;;;;5046825;28;20466;-70
2022/12/10 03:14:33;;;;;;;68.00;44.20;;;-1.50;99.90;;;;;;5047871;28;20504;-70
2022/12/10 03:17:01;;;;;;;72.43;42.92;;;-1.50;99.90;;;;;;5047808;28;20885;-70
2022/12/10 03:19:37;;;;;;;67.40;42.03;;;-1.20;99.90;;;;;;5046753;28;20855;-70
2022/12/10 03:22:05;;;;;;;71.68;44.90;;;-1.30;99.90;;;;;;5048223;28;25123;-70
2022/12/10 03:24:34;;;;;;;66.90;42.05;;;-1.40;99.90;;;;;;5047320;28;20411;-70
2022/12/10 03:27:01;;;;;;;70.47;44.45;;;-1.30;99.90;;;;;;5047148;28;20480;-70
2022/12/10 03:29:33;;;;;;;73.68;44.65;;;-1.10;99.90;;;;;;5046095;28;20417;-71
2022/12/10 03:31:59;;;;;;;68.53;44.22;;;-1.40;99.90;;;;;;5042906;28;20423;-69
2022/12/10 03:34:25;;;;;;;73.78;45.20;;;-1.20;99.90;;;;;;5027993;28;20411;-69
2022/12/10 03:36:51;;;;;;;69.50;45.22;;;-1.10;99.90;;;;;;5043967;28;20424;-71
2022/12/10 03:39:18;;;;;;;77.30;44.67;;;-1.40;99.90;;;;;;5029419;28;20437;-71
2022/12/10 03:41:43;;;;;;;69.95;43.60;;;-1.20;99.90;;;;;;5048528;28;20409;-70
2022/12/10 03:44:09;;;;;;;75.18;45.65;;;-1.20;99.90;;;;;;5045901;28;20421;-71
2022/12/10 03:46:35;;;;;;;72.57;46.70;;;-1.10;99.90;;;;;;5046429;28;20409;-71
2022/12/10 03:49:01;;;;;;;74.13;44.58;;;-1.00;99.90;;;;;;5047268;28;20498;-70
2022/12/10 03:51:27;;;;;;;74.15;44.38;;;-1.20;99.90;;;;;;5044705;28;20517;-71
2022/12/10 03:53:53;;;;;;;82.95;47.25;;;-1.00;99.90;;;;;;5048018;28;20492;-70
2022/12/10 03:56:19;;;;;;;84.57;47.67;;;-1.10;99.90;;;;;;5047699;28;20439;-71
2022/12/10 03:58:46;;;;;;;86.68;47.47;;;-1.00;99.90;;;;;;5043245;28;20425;-70
2022/12/10 04:01:12;;;;;;;84.07;47.30;;;-1.00;99.90;;;;;;5045620;28;20920;-70
2022/12/10 04:03:40;;;;;;;88.03;48.17;;;-1.00;99.90;;;;;;5046787;28;20421;-70
2022/12/10 04:06:10;;;;;;;100.25;49.80;;;-1.10;99.90;;;;;;5046972;28;20414;-70
2022/12/10 04:08:36;;;;;;;92.00;48.95;;;-1.10;99.90;;;;;;5045596;28;20442;-70
2022/12/10 04:11:08;;;;;;;97.45;48.28;;;-0.90;99.90;;;;;;5046524;28;20436;-72
2022/12/10 04:16:26;;;;;;;107.43;47.92;;;-0.90;99.90;;;;;;5045890;28;20491;-71
2022/12/10 04:19:00;;;;;;;152.30;53.78;;;-1.10;99.90;;;;;;5046079;28;25095;-71
2022/12/10 04:26:59;;;;;;;136.77;52.10;;;-0.70;99.90;;;;;;5045214;28;25144;-70
2022/12/10 04:29:29;;;;;;;129.60;47.00;;;-0.80;99.90;;;;;;5044416;28;20426;-71
2022/12/10 04:31:56;;;;;;;123.15;45.75;;;-1.00;99.90;;;;;;5047388;28;20553;-70
2022/12/10 04:34:22;;;;;;;123.60;45.47;;;-0.70;99.90;;;;;;5045993;28;20418;-71
2022/12/10 04:36:49;;;;;;;150.00;50.60;;;-0.70;99.90;;;;;;5045283;28;20405;-70
2022/12/10 04:39:15;;;;;;;141.65;48.58;;;-1.10;99.90;;;;;;5044039;28;20480;-70
2022/12/10 04:41:43;;;;;;;174.85;48.53;;;-1.10;99.90;;;;;;5039505;28;20436;-71
2022/12/10 04:44:10;;;;;;;143.43;46.23;;;-1.10;99.90;;;;;;5043840;28;20418;-70
2022/12/10 04:46:36;;;;;;;174.32;46.80;;;-0.80;99.90;;;;;;5045625;28;20463;-71
2022/12/10 04:49:02;;;;;;;206.00;50.13;;;-1.10;99.90;;;;;;5045208;28;20453;-70
2022/12/10 04:51:28;;;;;;;251.02;56.47;;;-1.10;99.90;;;;;;5046118;28;20417;-71
2022/12/10 04:53:53;;;;;;;140.83;44.43;;;-1.10;99.90;;;;;;5044062;28;20401;-70
2022/12/10 04:56:19;;;;;;;183.52;49.58;;;-1.10;99.90;;;;;;5043571;28;20425;-71
2022/12/10 04:58:45;;;;;;;144.40;45.28;;;-1.00;99.90;;;;;;5046841;28;20508;-70
2022/12/10 05:01:12;;;;;;;159.63;47.47;;;-0.80;99.90;;;;;;5029322;28;20516;-71
2022/12/10 05:03:38;;;;;;;181.15;48.42;;;-0.90;99.90;;;;;;5046628;28;20422;-70
2022/12/10 05:06:07;;;;;;;226.50;50.40;;;-1.00;99.90;;;;;;5043848;28;20437;-70
2022/12/10 05:08:33;;;;;;;277.25;56.72;;;-0.60;99.90;;;;;;5044502;28;20823;-70
2022/12/10 05:11:04;;;;;;;264.55;53.15;;;-0.90;99.90;;;;;;5046381;28;20437;-70
2022/12/10 05:13:30;;;;;;;245.32;50.20;;;-0.70;99.90;;;;;;5048898;28;20508;-70
2022/12/10 05:15:57;;;;;;;283.90;56.20;;;-0.90;99.90;;;;;;5051440;28;20538;-71
2022/12/10 05:18:23;;;;;;;268.05;53.63;;;-1.00;99.90;;;;;;5048343;28;20432;-70
2022/12/10 05:20:49;;;;;;;198.90;48.17;;;-1.00;99.90;;;;;;5050067;28;20460;-70
2022/12/10 05:23:28;;;;;;;223.63;49.90;;;-0.70;99.90;;;;;;5050430;28;20802;-69
2022/12/10 05:26:02;;;;;;;204.97;48.00;;;-0.50;99.90;;;;;;5050046;28;20425;-70
2022/12/10 05:28:30;;;;;;;203.60;49.58;;;-0.90;99.90;;;;;;5047590;28;20436;-70
2022/12/10 05:30:56;;;;;;;244.48;52.70;;;-0.80;99.90;;;;;;5050537;28;20413;-70
2022/12/10 05:33:22;;;;;;;232.40;53.53;;;-0.60;99.90;;;;;;5048960;28;20456;-71
2022/12/10 05:35:56;;;;;;;203.00;47.53;;;-0.60;99.90;;;;;;5049581;28;20401;-71
2022/12/10 05:38:22;;;;;;;192.40;46.87;;;-0.80;99.90;;;;;;5049240;28;20420;-70
2022/12/10 05:40:48;;;;;;;200.63;48.22;;;-0.80;99.90;;;;;;5049508;28;20443;-70
2022/12/10 05:43:14;;;;;;;291.42;54.47;;;-0.80;99.90;;;;;;5048140;28;20427;-71
2022/12/10 05:45:40;;;;;;;194.30;44.95;;;-0.40;99.90;;;;;;5047570;28;20741;-70
2022/12/10 05:48:06;;;;;;;235.63;49.28;;;-0.80;99.90;;;;;;5049356;28;20409;-71
2022/12/10 05:50:33;;;;;;;190.80;45.92;;;-0.40;99.90;;;;;;5047950;28;20467;-71
2022/12/10 05:52:58;;;;;;;238.23;46.22;;;-0.70;99.90;;;;;;5049850;28;20421;-70
2022/12/10 05:55:26;;;;;;;219.70;44.43;;;-0.20;99.90;;;;;;5050292;28;20409;-71
2022/12/10 05:57:52;;;;;;;240.60;47.60;;;-0.80;99.90;;;;;;5048634;28;20788;-71
2022/12/10 06:00:18;;;;;;;227.77;50.95;;;-0.70;99.90;;;;;;5048940;28;20425;-71
2022/12/10 06:02:43;;;;;;;221.35;48.05;;;-0.50;99.90;;;;;;5049029;28;20760;-71
2022/12/10 06:05:09;;;;;;;234.07;48.60;;;-0.20;99.90;;;;;;5047416;28;20454;-70
2022/12/10 06:07:35;;;;;;;249.17;48.53;;;-0.40;99.90;;;;;;5048019;28;20512;-70
2022/12/10 06:10:01;;;;;;;259.20;48.95;;;-0.80;99.90;;;;;;5049483;28;20495;-71
2022/12/10 06:12:26;;;;;;;241.80;47.83;;;-0.60;99.90;;;;;;5049382;28;20417;-70
2022/12/10 06:14:52;;;;;;;220.30;46.00;;;-0.10;99.90;;;;;;5049827;28;20443;-71
2022/12/10 06:17:18;;;;;;;237.10;49.47;;;-0.30;99.90;;;;;;5047178;28;20428;-69
2022/12/10 06:19:43;;;;;;;242.03;46.27;;;-0.40;99.90;;;;;;5046247;28;20775;-70
2022/12/10 06:22:09;;;;;;;184.17;40.30;;;-0.30;99.90;;;;;;5049235;28;20409;-70
2022/12/10 06:24:35;;;;;;;191.80;43.03;;;-0.30;99.90;;;;;;5031541;28;20417;-70
2022/12/10 06:27:00;;;;;;;168.65;42.53;;;-0.20;99.90;;;;;;5048354;28;20907;-70
2022/12/10 06:29:26;;;;;;;210.35;49.33;;;0.00;99.90;;;;;;5049434;28;20468;-71
2022/12/10 06:31:52;;;;;;;199.50;45.17;;;-0.50;99.90;;;;;;5049534;28;20437;-71
2022/12/10 06:34:17;;;;;;;232.70;44.13;;;-0.60;99.90;;;;;;5047792;28;20424;-70
2022/12/10 06:36:43;;;;;;;243.55;46.97;;;-0.60;99.90;;;;;;5048767;28;20979;-70
2022/12/10 06:39:09;;;;;;;289.25;49.95;;;-0.50;99.90;;;;;;5029719;28;20510;-70
2022/12/10 06:41:34;;;;;;;223.80;42.90;;;-0.70;99.90;;;;;;5046561;28;20445;-69
2022/12/10 06:44:00;;;;;;;233.93;42.87;;;-0.30;99.90;;;;;;5047231;28;20425;-69
2022/12/10 06:46:28;;;;;;;225.17;44.20;;;-0.30;99.90;;;;;;5041529;28;20432;-69
2022/12/10 06:48:54;;;;;;;170.80;38.10;;;-0.70;99.90;;;;;;5047456;28;20761;-69
2022/12/10 06:51:19;;;;;;;377.33;54.78;;;-0.60;99.90;;;;;;5045671;28;20432;-69
2022/12/10 06:53:46;;;;;;;239.52;43.60;;;0.00;99.90;;;;;;5047456;28;20491;-70
2022/12/10 06:56:14;;;;;;;183.88;40.25;;;-0.70;99.90;;;;;;5045297;28;20823;-70
2022/12/10 06:58:43;;;;;;;250.70;45.35;;;-0.70;99.90;;;;;;5042318;28;20451;-69
2022/12/10 07:01:09;;;;;;;159.90;37.08;;;-0.20;99.90;;;;;;5033832;28;20498;-69
2022/12/10 07:03:35;;;;;;;145.67;36.43;;;-0.70;99.90;;;;;;5046851;28;20924;-69
2022/12/10 07:06:02;;;;;;;136.07;34.80;;;-0.90;99.90;;;;;;5045873;28;20427;-69
2022/12/10 07:08:28;;;;;;;167.48;37.72;;;-0.30;99.90;;;;;;5028806;28;20506;-69
2022/12/10 07:10:53;;;;;;;127.80;33.53;;;-0.80;99.90;;;;;;5046825;28;20417;-69
2022/12/10 07:13:19;;;;;;;190.65;38.45;;;-0.60;99.90;;;;;;5046546;28;20424;-70
2022/12/10 07:15:45;;;;;;;118.72;30.65;;;-0.80;99.90;;;;;;5046665;28;20422;-69
2022/12/10 07:18:11;;;;;;;124.60;28.55;;;-0.50;99.90;;;;;;5044309;28;20978;-70
2022/12/10 07:20:36;;;;;;;89.33;28.70;;;-0.60;99.90;;;;;;5046468;28;20557;-70
2022/12/10 07:23:02;;;;;;;137.70;31.57;;;-0.80;99.90;;;;;;5043100;28;20417;-69
2022/12/10 07:25:28;;;;;;;109.07;29.37;;;-0.40;99.90;;;;;;5046483;28;20457;-69
2022/12/10 07:27:54;;;;;;;118.03;29.30;;;-0.60;99.90;;;;;;5044922;28;20417;-69
2022/12/10 07:30:19;;;;;;;99.05;28.17;;;-0.50;99.90;;;;;;5048340;28;20412;-69
2022/12/10 07:32:45;;;;;;;108.37;27.83;;;-0.50;99.90;;;;;;5047357;28;20514;-70
2022/12/10 07:35:11;;;;;;;105.53;27.37;;;-0.70;99.90;;;;;;5045424;28;20919;-69
2022/12/10 07:37:37;;;;;;;104.47;26.63;;;-0.90;99.90;;;;;;5045594;28;20409;-69
2022/12/10 07:40:03;;;;;;;105.57;25.98;;;-0.70;99.90;;;;;;5047288;28;20479;-70
2022/12/10 07:42:28;;;;;;;118.13;25.23;;;-0.90;99.90;;;;;;5030008;28;20431;-68
2022/12/10 07:44:54;;;;;;;116.03;26.10;;;-0.40;99.90;;;;;;5048017;28;20835;-69
2022/12/10 07:47:20;;;;;;;101.97;23.27;;;-1.00;99.90;;;;;;5047011;28;20421;-69
2022/12/10 07:49:46;;;;;;;123.47;26.73;;;-0.90;99.90;;;;;;5046678;28;20485;-70
2022/12/10 07:52:11;;;;;;;125.05;26.80;;;-0.60;99.90;;;;;;5047356;28;20491;-70
2022/12/10 07:54:37;;;;;;;125.03;26.52;;;-0.90;99.90;;;;;;5047264;28;21357;-69
2022/12/10 07:57:03;;;;;;;114.20;27.95;;;-0.70;99.90;;;;;;5048169;28;20407;-70
2022/12/10 07:59:29;;;;;;;90.87;25.47;;;-0.30;99.90;;;;;;5046327;28;20417;-70
2022/12/10 08:01:55;;;;;;;158.68;31.63;;;-0.80;99.90;;;;;;5045694;28;20430;-69
2022/12/10 08:04:20;;;;;;;144.37;29.50;;;-0.80;99.90;;;;;;5046360;28;20420;-70
2022/12/10 08:06:47;;;;;;;92.77;28.53;;;-0.50;99.90;;;;;;5047485;28;20428;-71
2022/12/10 08:09:13;;;;;;;87.88;28.75;;;-0.40;99.90;;;;;;5045923;28;20429;-71
2022/12/10 08:11:39;;;;;;;125.57;30.67;;;-0.70;99.90;;;;;;5047064;28;20418;-70
2022/12/10 08:14:04;;;;;;;102.90;26.10;;;-0.30;99.90;;;;;;5047019;28;20418;-70
2022/12/10 08:16:31;;;;;;;118.38;28.00;;;-0.40;99.90;;;;;;5046312;28;20436;-70
2022/12/10 08:18:59;;;;;;;107.18;29.27;;;-0.80;99.90;;;;;;5044969;28;20463;-70
2022/12/10 08:21:27;;;;;;;144.50;33.10;;;-0.80;99.90;;;;;;5039049;28;20434;-70
2022/12/10 08:23:55;;;;;;;105.13;27.05;;;-0.40;99.90;;;;;;5041785;28;20456;-70
2022/12/10 08:26:24;;;;;;;110.43;28.95;;;-0.40;99.90;;;;;;5045345;28;20421;-70
2022/12/10 08:28:51;;;;;;;101.47;28.48;;;-0.40;99.90;;;;;;5045974;28;20417;-70
2022/12/10 08:31:19;;;;;;;99.57;29.70;;;-0.60;99.90;;;;;;5045631;28;20421;-71
2022/12/10 08:33:45;;;;;;;79.75;27.45;;;-0.70;99.90;;;;;;5044931;28;20795;-71
2022/12/10 08:36:13;;;;;;;88.40;27.83;;;-0.80;99.90;;;;;;5044580;28;21021;-71
2022/12/10 08:38:40;;;;;;;107.33;26.83;;;-0.30;99.90;;;;;;5046380;28;20769;-70
2022/12/10 08:41:15;;;;;;;105.70;28.60;;;-0.40;99.90;;;;;;5046892;28;20502;-70
2022/12/10 08:43:40;;;;;;;114.68;29.92;;;-0.80;99.90;;;;;;5045474;28;20417;-70
2022/12/10 08:46:07;;;;;;;108.70;29.20;;;-0.30;99.90;;;;;;5045771;28;20744;-69
2022/12/10 08:48:34;;;;;;;84.88;27.73;;;-0.70;99.90;;;;;;5044160;28;20417;-70
2022/12/10 08:51:00;;;;;;;100.80;29.17;;;-0.80;99.90;;;;;;5045100;28;20822;-70
2022/12/10 08:53:26;;;;;;;144.88;30.80;;;-0.60;99.90;;;;;;5044711;28;20410;-71
2022/12/10 08:55:53;;;;;;;84.90;26.77;;;-0.80;99.90;;;;;;5047102;28;20911;-69
2022/12/10 08:58:19;;;;;;;101.03;28.92;;;-0.70;99.90;;;;;;5045127;28;20799;-72
2022/12/10 09:00:46;;;;;;;77.40;26.48;;;-0.30;99.90;;;;;;5043803;28;20437;-70
2022/12/10 09:03:12;;;;;;;120.82;29.65;;;-0.20;99.90;;;;;;5044200;28;20799;-70
2022/12/10 09:05:39;;;;;;;117.63;28.55;;;-0.30;99.90;;;;;;5033813;28;20468;-68
2022/12/10 09:08:05;;;;;;;101.83;29.27;;;-0.70;99.90;;;;;;5043257;28;20799;-70
2022/12/10 09:10:31;;;;;;;116.43;29.45;;;-0.60;99.90;;;;;;5045942;28;20402;-71
2022/12/10 09:12:57;;;;;;;118.95;29.65;;;-0.70;99.90;;;;;;5045481;28;20428;-70
2022/12/10 09:15:22;;;;;;;99.95;29.27;;;-0.40;99.90;;;;;;5028189;28;20776;-71
2022/12/10 09:17:48;;;;;;;99.63;31.25;;;-0.20;99.90;;;;;;5046614;28;20402;-71
2022/12/10 09:20:14;;;;;;;108.25;29.88;;;-0.40;99.90;;;;;;5044037;28;20421;-70
2022/12/10 09:22:40;;;;;;;102.85;30.50;;;-0.50;99.90;;;;;;5042802;28;20420;-72
2022/12/10 09:25:09;;;;;;;101.03;30.15;;;-0.50;99.90;;;;;;5046743;28;20759;-70
2022/12/10 09:27:36;;;;;;;113.78;31.05;;;-0.30;99.90;;;;;;5044591;28;20810;-70
2022/12/10 09:30:03;;;;;;;110.00;31.77;;;-0.50;99.90;;;;;;5044850;28;20443;-70
2022/12/10 09:32:29;;;;;;;116.00;32.15;;;-0.20;99.90;;;;;;5041218;28;20777;-71
2022/12/10 09:34:55;;;;;;;107.60;30.67;;;-0.80;99.90;;;;;;5045048;28;20498;-72
2022/12/10 09:37:20;;;;;;;143.10;33.27;;;-0.20;99.90;;;;;;5026264;28;20457;-71
2022/12/10 09:39:46;;;;;;;91.47;29.10;;;-0.70;99.90;;;;;;5044322;28;20874;-70
2022/12/10 09:42:45;;;;;;;198.48;37.15;;;-0.60;99.90;;;;;;5043409;28;20571;-71
2022/12/10 09:45:36;;;;;;;80.85;28.42;;;-0.60;99.90;;;;;;5045540;28;20417;-70
2022/12/10 09:48:47;;;;;;;106.72;29.35;;;-0.70;99.90;;;;;;5044757;28;20432;-70
2022/12/10 09:51:28;;;;;;;138.93;32.63;;;-0.20;99.90;;;;;;5030725;28;20459;-71
2022/12/10 09:53:59;;;;;;;170.20;34.53;;;0.00;99.90;;;;;;5046182;28;20399;-71
2022/12/10 09:56:44;;;;;;;95.18;28.83;;;-0.50;99.90;;;;;;5044433;28;20445;-71
2022/12/10 09:59:24;;;;;;;107.35;31.42;;;-0.10;99.90;;;;;;5049898;28;20442;-71
2022/12/10 10:02:20;;;;;;;146.02;31.63;;;-0.50;99.90;;;;;;5046584;28;20418;-70
2022/12/10 10:04:47;;;;;;;112.15;27.77;;;0.00;99.90;;;;;;5048848;28;20475;-72
2022/12/10 10:07:25;;;;;;;126.13;32.42;;;-0.10;99.90;;;;;;5049531;28;20500;-71
2022/12/10 10:09:57;;;;;;;90.10;29.42;;;-0.20;99.90;;;;;;5046495;28;21042;-71
2022/12/10 10:12:23;;;;;;;91.05;29.25;;;0.00;99.90;;;;;;5049047;28;20488;-71
2022/12/10 10:14:49;;;;;;;110.30;29.08;;;-0.40;99.90;;;;;;5048214;28;20517;-70
2022/12/10 10:17:45;;;;;;;91.80;28.70;;;-0.10;99.90;;;;;;5048530;28;20822;-70
2022/12/10 10:20:12;;;;;;;118.60;30.20;;;0.00;99.90;;;;;;5045179;28;20460;-72
2022/12/10 10:22:39;;;;;;;96.68;29.17;;;-0.10;99.90;;;;;;5048783;28;20409;-71
2022/12/10 10:25:12;;;;;;;95.88;28.00;;;-0.40;99.90;;;;;;5047705;28;20482;-72
2022/12/10 10:27:37;;;;;;;111.20;27.50;;;-0.10;99.90;;;;;;5045020;28;21037;-71
2022/12/10 10:30:04;;;;;;;128.70;28.70;;;-0.10;99.90;;;;;;5049255;28;20417;-71
2022/12/10 10:32:35;;;;;;;88.87;26.20;;;-0.30;99.90;;;;;;5047173;28;20448;-71
2022/12/10 10:35:02;;;;;;;94.00;24.83;;;-0.10;99.90;;;;;;5044793;28;20472;-71
2022/12/10 10:37:39;;;;;;;86.28;23.00;;;-0.30;99.90;;;;;;5043871;28;20425;-71
2022/12/10 10:40:06;;;;;;;65.40;24.25;;;-0.30;99.90;;;;;;5037681;28;20433;-70
2022/12/10 10:42:41;;;;;;;77.88;25.80;;;-0.30;99.90;;;;;;5041346;28;20472;-71
2022/12/10 10:45:34;;;;;;;91.15;27.05;;;-0.30;99.90;;;;;;5046981;28;20420;-72
2022/12/10 10:48:17;;;;;;;75.85;27.23;;;-0.30;99.90;;;;;;5046365;28;20566;-72
2022/12/10 10:50:49;;;;;;;72.88;25.80;;;-0.40;99.90;;;;;;5048091;28;20414;-71
2022/12/10 10:53:23;;;;;;;67.63;25.67;;;-0.40;99.90;;;;;;5040068;28;20737;-70
2022/12/10 10:55:49;;;;;;;61.55;25.33;;;0.20;99.90;;;;;;5047371;28;20421;-72
2022/12/10 10:58:19;;;;;;;69.18;27.85;;;0.10;99.90;;;;;;5054167;28;20445;-70
2022/12/10 11:01:07;;;;;;;70.13;25.95;;;0.30;99.90;;;;;;5049767;28;20456;-71
2022/12/10 11:03:36;;;;;;;68.95;25.30;;;0.20;99.90;;;;;;5046867;28;20428;-70
2022/12/10 11:06:06;;;;;;;69.95;27.65;;;-0.20;99.90;;;;;;5049250;28;20508;-69
2022/12/10 11:08:32;;;;;;;56.22;24.90;;;0.40;99.90;;;;;;5042320;28;20433;-70
2022/12/10 11:11:19;;;;;;;59.40;27.42;;;0.00;99.90;;;;;;5038823;28;20450;-71
2022/12/10 11:13:45;;;;;;;57.88;25.80;;;0.40;99.90;;;;;;5037678;28;20447;-70
2022/12/10 11:16:22;;;;;;;73.13;29.63;;;0.20;99.90;;;;;;5049598;28;20889;-69
2022/12/10 11:19:01;;;;;;;85.22;29.75;;;-0.10;99.90;;;;;;5046436;28;20433;-69
2022/12/10 11:21:29;;;;;;;98.13;30.70;;;-0.10;99.90;;;;;;5039686;28;20429;-69
2022/12/10 11:23:56;;;;;;;73.47;28.67;;;0.20;99.90;;;;;;5048121;28;20468;-70
2022/12/10 11:26:38;;;;;;;72.03;28.80;;;0.00;99.90;;;;;;5046413;28;20447;-70
2022/12/10 11:29:23;;;;;;;85.70;31.20;;;0.20;99.90;;;;;;5030002;28;20433;-69
2022/12/10 11:32:10;;;;;;;68.82;27.25;;;0.30;99.90;;;;;;5027469;28;20429;-71
2022/12/10 11:35:01;;;;;;;62.22;26.02;;;0.50;99.90;;;;;;5038045;28;20435;-69
2022/12/10 11:37:44;;;;;;;50.03;23.13;;;0.20;99.90;;;;;;5044566;28;20425;-69
2022/12/10 11:40:18;;;;;;;55.05;24.55;;;0.30;99.90;;;;;;5040484;28;20421;-70
2022/12/10 11:43:14;;;;;;;68.47;23.98;;;0.20;99.90;;;;;;5046168;28;20432;-69
2022/12/10 11:45:55;;;;;;;56.80;25.65;;;-0.20;99.90;;;;;;5041980;28;20931;-70
2022/12/10 11:48:33;;;;;;;67.38;27.10;;;0.00;99.90;;;;;;5039835;28;20926;-71
2022/12/10 11:51:11;;;;;;;55.65;26.90;;;0.20;99.90;;;;;;5045051;28;20436;-70
2022/12/10 11:53:52;;;;;;;51.97;24.95;;;0.30;99.90;;;;;;5036190;28;25190;-69
2022/12/10 11:56:30;;;;;;;50.35;26.02;;;0.10;99.90;;;;;;5044534;28;20421;-71
2022/12/10 11:59:28;;;;;;;41.47;23.38;;;0.30;99.90;;;;;;5045556;28;20433;-69
2022/12/10 12:02:19;;;;;;;44.78;24.85;;;0.20;99.90;;;;;;5047541;28;20733;-70
2022/12/10 12:04:55;;;;;;;49.67;26.05;;;-0.10;99.90;;;;;;5042599;28;20474;-68
2022/12/10 12:07:25;;;;;;;56.58;25.60;;;0.30;99.90;;;;;;5045407;28;20500;-69
2022/12/10 12:09:57;;;;;;;52.13;27.70;;;0.30;99.90;;;;;;5040890;28;20433;-69
2022/12/10 12:13:00;;;;;;;54.17;26.35;;;0.40;99.90;;;;;;5046487;28;20503;-70
2022/12/10 12:15:30;;;;;;;47.87;25.33;;;0.30;99.90;;;;;;5045360;28;20437;-70
2022/12/10 12:18:04;;;;;;;62.00;31.00;;;0.50;99.90;;;;;;5044237;28;20447;-70
2022/12/10 12:20:34;;;;;;;76.43;30.13;;;0.20;99.90;;;;;;5042197;28;20451;-70
2022/12/10 12:23:09;;;;;;;60.20;30.83;;;0.20;99.90;;;;;;5046559;28;20440;-71
2022/12/10 12:25:39;;;;;;;55.05;28.08;;;0.40;99.90;;;;;;5045734;28;20417;-72
2022/12/10 12:28:19;;;;;;;61.80;30.88;;;0.60;99.90;;;;;;5043378;28;20433;-69
2022/12/10 12:30:47;;;;;;;62.78;29.58;;;0.50;99.90;;;;;;5042183;28;20420;-69
2022/12/10 12:33:26;;;;;;;53.60;29.02;;;0.20;99.90;;;;;;5043958;28;20429;-70
2022/12/10 12:36:06;;;;;;;52.47;28.88;;;0.50;99.90;;;;;;5045859;28;20437;-70
2022/12/10 12:38:52;;;;;;;53.35;28.55;;;0.60;99.90;;;;;;5043716;28;20768;-71
2022/12/10 12:41:50;;;;;;;52.33;29.48;;;0.50;99.90;;;;;;5044085;28;20444;-70
2022/12/10 12:44:34;;;;;;;52.67;27.13;;;0.40;99.90;;;;;;5041941;28;20449;-70
2022/12/10 12:47:14;;;;;;;43.37;24.27;;;0.50;99.90;;;;;;5042255;28;25149;-69